KAKO

Colorado Plains Regional Airport

Akron, Colorado, USA
METAR KAKO 221453Z AUTO 18009KT 10SM CLR 18/09 A2998 RMK AO2 SLP105 T01780094 50005
Observed Flight Rules
May-22 @ 14:53 UTC (31 minutes ago) Visual Flight Rules
Wind Visibility Clouds
180° at 9 knots 10 miles
  • Clear skies
Temperatures Readings
Current 18°C / 64°F
Dewpoint 9°C / 48°F
Humidity 56%
Altimeter 29.98" Hg
Pressure 1010.5 hPa
Elevation 1421
METAR KAKO 221453Z AUTO 18009KT 10SM CLR 18/09 A2998 RMK AO2 SLP105 T01780094 50005
Observed Flight Rules
May-22 @ 14:53 UTC
(31 minutes ago)
VFR
Wind Visibility
180° at 9 knots 10 miles
Clouds
  • Clear skies
Temperature Dewpoint
18°C / 64°F 9°C / 48°F
Humidity Altimeter Pressure
56% 29.98" Hg 1010.5 hPa